Time;durP1;ratioP1;P1;durP2;ratioP2;P2;SDS_P1;SDS_P2;PMS_P1;PMS_P2;Temp;Humidity;BMP_temperature;BMP_pressure;BME280_temperature;BME280_humidity;BME280_pressure;Samples;Min_cycle;Max_cycle;Signal;HPM_P1;HPM_P2
2023/10/10 00:00:23;;;;;;;8.02;5.32;;;15.50;99.90;;;;;;4974073;28;20050;-85
2023/10/10 00:02:51;;;;;;;11.05;4.82;;;15.50;99.90;;;;;;4958456;28;20039;-85
2023/10/10 00:05:18;;;;;;;7.55;5.38;;;15.50;99.90;;;;;;4974562;28;20109;-85
2023/10/10 00:07:44;;;;;;;7.07;5.00;;;15.50;99.90;;;;;;4974518;28;20047;-84
2023/10/10 00:10:13;;;;;;;7.85;5.70;;;15.50;99.90;;;;;;4974404;28;20039;-85
2023/10/10 00:12:42;;;;;;;9.07;5.97;;;15.50;99.90;;;;;;4955755;28;20503;-84
2023/10/10 00:15:20;;;;;;;6.78;5.70;;;15.50;99.90;;;;;;4963314;28;20038;-85
2023/10/10 00:17:46;;;;;;;7.72;5.53;;;15.50;99.90;;;;;;4951157;29;20455;-85
2023/10/10 00:20:25;;;;;;;8.55;5.85;;;15.50;99.90;;;;;;4973148;28;20101;-85
2023/10/10 00:22:58;;;;;;;8.40;6.32;;;15.50;99.90;;;;;;4974672;28;20058;-84
2023/10/10 00:25:30;;;;;;;8.98;5.97;;;15.50;99.90;;;;;;4944298;28;20039;-85
2023/10/10 00:28:04;;;;;;;;;;;15.50;99.90;;;;;;4974004;28;20119;-85
2023/10/10 00:30:34;;;;;;;10.82;5.80;;;15.50;99.90;;;;;;4969457;28;20287;-85
2023/10/10 00:33:04;;;;;;;10.82;6.00;;;15.50;99.90;;;;;;4973646;28;20038;-84
2023/10/10 00:35:31;;;;;;;11.48;6.05;;;15.50;99.90;;;;;;4954625;28;20038;-85
2023/10/10 00:37:57;;;;;;;11.50;6.53;;;15.50;99.90;;;;;;4973041;28;20131;-85
2023/10/10 00:40:30;;;;;;;10.70;6.93;;;15.50;99.90;;;;;;4939985;28;20480;-85
2023/10/10 00:43:04;;;;;;;9.30;6.57;;;15.60;99.90;;;;;;4955223;28;20042;-85
2023/10/10 00:45:33;;;;;;;9.45;6.00;;;15.60;99.90;;;;;;4975325;28;20042;-85
2023/10/10 00:48:00;;;;;;;9.20;6.60;;;15.50;99.90;;;;;;4956477;28;20661;-85
2023/10/10 00:50:27;;;;;;;12.35;7.25;;;15.60;99.90;;;;;;4954429;28;20062;-85
2023/10/10 00:52:53;;;;;;;11.27;7.22;;;15.60;99.90;;;;;;4952621;28;20098;-85
2023/10/10 00:55:24;;;;;;;12.90;7.47;;;15.60;99.90;;;;;;4957175;28;20042;-85
2023/10/10 00:57:58;;;;;;;9.75;6.38;;;15.60;99.90;;;;;;4972888;28;20043;-85
2023/10/10 01:00:25;;;;;;;12.55;7.85;;;15.60;99.90;;;;;;4972762;28;20124;-85
2023/10/10 01:02:56;;;;;;;11.82;7.03;;;15.60;99.90;;;;;;4956971;28;20050;-85
2023/10/10 01:05:39;;;;;;;11.82;7.53;;;15.60;99.90;;;;;;4973915;28;20061;-85
2023/10/10 01:08:05;;;;;;;11.43;7.85;;;15.60;99.90;;;;;;4952990;28;20047;-85
2023/10/10 01:10:39;;;;;;;13.48;7.72;;;15.60;99.90;;;;;;4973808;28;20553;-85
2023/10/10 01:13:10;;;;;;;14.02;8.18;;;15.60;99.90;;;;;;4954133;28;20096;-85
2023/10/10 01:15:36;;;;;;;13.60;8.25;;;15.60;99.90;;;;;;4973038;28;20093;-84
2023/10/10 01:18:13;;;;;;;12.77;8.32;;;15.60;99.90;;;;;;4956863;28;20435;-84
2023/10/10 01:20:45;;;;;;;14.63;9.18;;;15.60;99.90;;;;;;4957152;28;20486;-85
2023/10/10 01:23:15;;;;;;;9.73;7.95;;;15.60;99.90;;;;;;4956634;28;20130;-84
2023/10/10 01:25:42;;;;;;;12.50;8.07;;;15.60;99.90;;;;;;4957007;28;20081;-84
2023/10/10 01:33:25;;;;;;;14.23;8.43;;;15.60;99.90;;;;;;4969665;28;20047;-85
2023/10/10 01:35:55;;;;;;;13.40;8.00;;;15.60;99.90;;;;;;4974152;28;20039;-84
2023/10/10 01:38:55;;;;;;;14.93;8.13;;;15.60;99.90;;;;;;4970716;28;20097;-84
2023/10/10 01:41:31;;;;;;;13.55;8.18;;;15.50;99.90;;;;;;4954624;28;20815;-85
2023/10/10 01:44:08;;;;;;;11.43;7.45;;;15.50;99.90;;;;;;4952882;29;20113;-84
2023/10/10 01:46:35;;;;;;;9.68;6.90;;;15.50;99.90;;;;;;4954408;28;20061;-85
2023/10/10 01:49:02;;;;;;;13.32;7.40;;;15.50;99.90;;;;;;4953464;29;20051;-85
2023/10/10 01:51:33;;;;;;;12.05;8.25;;;15.50;99.90;;;;;;4967751;28;20121;-84
2023/10/10 01:54:01;;;;;;;13.63;8.85;;;15.50;99.90;;;;;;4955242;28;20609;-85
2023/10/10 01:56:27;;;;;;;12.50;8.40;;;15.50;99.90;;;;;;4973609;28;20489;-84
2023/10/10 01:58:54;;;;;;;12.95;9.40;;;15.50;99.90;;;;;;4972504;28;20046;-84
2023/10/10 02:01:23;;;;;;;15.18;8.18;;;15.50;99.90;;;;;;4988537;28;20084;-84
2023/10/10 02:03:50;;;;;;;12.25;8.13;;;15.50;99.90;;;;;;4971990;28;20076;-85
2023/10/10 02:06:25;;;;;;;13.70;9.00;;;15.50;99.90;;;;;;4956452;28;20109;-84
2023/10/10 02:09:10;;;;;;;12.02;8.77;;;15.50;99.90;;;;;;4972352;28;20058;-84
2023/10/10 02:11:38;;;;;;;14.25;9.27;;;15.50;99.90;;;;;;4962752;28;20053;-85
2023/10/10 02:14:11;;;;;;;12.32;8.98;;;15.50;99.90;;;;;;4971923;28;20487;-84
2023/10/10 02:16:40;;;;;;;16.42;8.68;;;15.50;99.90;;;;;;4956028;28;20042;-85
2023/10/10 02:19:15;;;;;;;15.20;8.85;;;15.50;99.90;;;;;;4956601;28;20054;-85
2023/10/10 02:22:02;;;;;;;10.75;8.50;;;15.50;99.90;;;;;;4956568;28;20094;-85
2023/10/10 02:26:54;;;;;;;11.98;8.30;;;15.50;99.90;;;;;;4973057;28;20081;-85
2023/10/10 02:34:35;;;;;;;14.00;9.40;;;15.50;99.90;;;;;;4971867;28;20047;-84
2023/10/10 02:37:45;;;;;;;12.48;8.98;;;15.50;99.90;;;;;;4969499;28;20515;-85
2023/10/10 02:40:31;;;;;;;14.90;9.13;;;15.50;99.90;;;;;;4960353;28;20091;-85
2023/10/10 02:42:50;;;;;;;13.52;9.73;;;15.50;99.90;;;;;;4970529;28;20074;-84
2023/10/10 02:45:17;;;;;;;13.80;9.60;;;15.40;99.90;;;;;;4953418;28;20086;-84
2023/10/10 02:47:52;;;;;;;14.52;10.32;;;15.50;99.90;;;;;;4941845;28;20133;-84
2023/10/10 02:50:51;;;;;;;14.75;9.65;;;15.40;99.90;;;;;;4955444;28;20121;-85
2023/10/10 02:53:10;;;;;;;13.63;9.27;;;15.40;99.90;;;;;;4970064;28;20498;-84
2023/10/10 02:55:41;;;;;;;17.38;9.90;;;15.50;99.90;;;;;;4958230;28;20051;-85
2023/10/10 02:58:20;;;;;;;14.90;10.68;;;15.40;99.90;;;;;;4975371;28;20031;-84
2023/10/10 03:00:51;;;;;;;13.10;9.95;;;15.50;99.90;;;;;;4956382;28;20286;-84
2023/10/10 03:03:20;;;;;;;10.85;9.57;;;15.40;99.90;;;;;;4956741;28;20049;-84
2023/10/10 03:05:54;;;;;;;14.25;10.20;;;15.50;99.90;;;;;;4956227;29;20040;-84
2023/10/10 03:11:00;;;;;;;16.58;10.02;;;15.50;99.90;;;;;;4969398;28;20043;-85
2023/10/10 03:13:37;;;;;;;12.40;9.63;;;15.50;99.90;;;;;;4959045;28;20085;-85
2023/10/10 03:29:49;;;;;;;16.27;10.13;;;15.50;99.90;;;;;;4976213;28;20487;-85
2023/10/10 03:35:20;;;;;;;13.60;10.63;;;15.40;99.90;;;;;;4972457;28;20401;-85
2023/10/10 03:37:54;;;;;;;15.45;10.65;;;15.40;99.90;;;;;;4973178;28;20050;-85
2023/10/10 05:24:43;;;;;;;20.98;14.00;;;15.20;99.90;;;;;;4960741;28;20047;-85
2023/10/10 05:27:11;;;;;;;22.15;13.65;;;15.30;99.90;;;;;;4973905;28;20045;-85
2023/10/10 05:29:37;;;;;;;24.48;14.55;;;15.30;99.90;;;;;;4974089;28;20478;-85
2023/10/10 05:32:08;;;;;;;20.35;14.43;;;15.20;99.90;;;;;;4969428;28;20514;-85
2023/10/10 05:34:34;;;;;;;19.98;14.00;;;15.20;99.90;;;;;;4952540;28;20034;-84
2023/10/10 05:37:00;;;;;;;20.13;13.27;;;15.20;99.90;;;;;;4957968;28;20046;-85
2023/10/10 05:39:32;;;;;;;21.75;14.55;;;15.20;99.90;;;;;;4957760;28;20043;-85
2023/10/10 05:41:59;;;;;;;22.58;15.20;;;15.30;99.90;;;;;;4974035;28;20046;-85
2023/10/10 05:44:25;;;;;;;21.08;14.25;;;15.30;99.90;;;;;;4955708;28;20462;-85
2023/10/10 05:46:52;;;;;;;21.75;14.52;;;15.30;99.90;;;;;;4958150;28;20043;-85
2023/10/10 05:49:18;;;;;;;22.02;14.85;;;15.30;99.90;;;;;;4972706;28;20066;-85
2023/10/10 05:51:44;;;;;;;24.83;14.85;;;15.30;99.90;;;;;;4989531;28;20043;-84
2023/10/10 05:54:11;;;;;;;18.42;13.52;;;15.30;99.90;;;;;;4953909;28;20114;-85
2023/10/10 05:56:37;;;;;;;21.95;14.05;;;15.30;99.90;;;;;;4942327;28;20039;-85
2023/10/10 05:59:04;;;;;;;27.10;15.35;;;15.20;99.90;;;;;;4952061;28;20046;-84
2023/10/10 06:01:30;;;;;;;22.00;14.95;;;15.20;99.90;;;;;;4971948;28;20042;-84
2023/10/10 06:03:57;;;;;;;26.10;16.25;;;15.20;99.90;;;;;;4956038;28;20073;-84
2023/10/10 06:06:23;;;;;;;21.52;16.17;;;15.20;99.90;;;;;;4972165;28;20487;-84
2023/10/10 06:09:00;;;;;;;23.08;16.60;;;15.10;99.90;;;;;;4956189;28;20097;-83
2023/10/10 06:11:27;;;;;;;21.52;15.38;;;15.10;99.90;;;;;;4951411;28;20031;-83
2023/10/10 06:13:53;;;;;;;30.20;17.38;;;15.10;99.90;;;;;;4952365;28;20074;-84
2023/10/10 06:16:20;;;;;;;22.83;16.17;;;15.10;99.90;;;;;;4972226;28;20120;-85
2023/10/10 06:18:47;;;;;;;23.88;16.52;;;15.10;99.90;;;;;;4972209;28;20046;-85
2023/10/10 06:21:16;;;;;;;23.77;15.82;;;15.00;99.90;;;;;;4971184;28;20050;-84
2023/10/10 06:23:44;;;;;;;28.45;16.70;;;15.00;99.90;;;;;;4956158;28;20131;-84
2023/10/10 06:26:12;;;;;;;26.60;16.67;;;15.00;99.90;;;;;;4955510;28;20046;-84
2023/10/10 06:28:47;;;;;;;25.85;17.27;;;15.00;99.90;;;;;;4955144;28;20157;-84
2023/10/10 06:31:21;;;;;;;30.13;19.15;;;15.00;99.90;;;;;;4972162;28;20043;-84
2023/10/10 06:33:49;;;;;;;29.85;18.33;;;15.00;99.90;;;;;;4970459;28;20475;-84
2023/10/10 06:36:37;;;;;;;26.95;17.90;;;15.00;99.90;;;;;;4971360;28;20390;-84
2023/10/10 06:41:36;;;;;;;32.45;20.27;;;15.00;99.90;;;;;;4970819;28;20054;-85
2023/10/10 06:44:04;;;;;;;28.20;19.17;;;15.00;99.90;;;;;;4971054;28;20058;-85
2023/10/10 06:46:37;;;;;;;29.27;19.88;;;15.10;99.90;;;;;;4954866;28;20043;-84
2023/10/10 06:49:06;;;;;;;35.03;20.70;;;15.10;99.90;;;;;;4971941;28;20428;-84
2023/10/10 06:51:41;;;;;;;34.05;20.38;;;15.10;99.90;;;;;;4956188;28;20047;-83
2023/10/10 06:54:27;;;;;;;35.05;21.27;;;15.10;99.90;;;;;;4950778;28;20042;-84
2023/10/10 06:59:28;;;;;;;35.15;21.40;;;15.20;99.90;;;;;;4972081;28;20413;-84
2023/10/10 07:01:57;;;;;;;36.53;22.35;;;15.30;99.90;;;;;;4965082;28;20166;-84
2023/10/10 07:04:23;;;;;;;33.63;20.52;;;15.30;99.90;;;;;;4955309;28;20043;-85
2023/10/10 07:06:51;;;;;;;35.85;21.63;;;15.30;99.90;;;;;;4970449;28;20054;-84
2023/10/10 07:09:27;;;;;;;39.58;21.70;;;15.40;99.90;;;;;;4970461;28;20078;-84
2023/10/10 07:11:57;;;;;;;37.97;22.50;;;15.40;99.90;;;;;;4970206;28;20042;-84
2023/10/10 07:14:26;;;;;;;34.70;22.58;;;15.40;99.90;;;;;;4970809;28;20491;-84
2023/10/10 07:16:56;;;;;;;34.90;21.55;;;15.40;99.90;;;;;;4983956;28;20045;-84
2023/10/10 07:19:31;;;;;;;38.00;23.83;;;15.50;99.90;;;;;;4971214;28;20406;-84
2023/10/10 07:21:59;;;;;;;40.80;24.83;;;15.50;99.90;;;;;;4955735;28;20038;-84
2023/10/10 07:24:40;;;;;;;39.92;23.77;;;15.50;99.90;;;;;;4971385;28;20042;-84
2023/10/10 07:27:11;;;;;;;43.53;25.63;;;15.60;99.90;;;;;;4952629;29;20231;-84
2023/10/10 07:32:27;;;;;;;38.67;25.08;;;15.60;99.90;;;;;;4949452;28;20039;-84
2023/10/10 07:34:54;;;;;;;43.08;26.02;;;15.70;99.90;;;;;;4955456;28;20121;-84
2023/10/10 07:37:23;;;;;;;45.83;27.88;;;15.70;99.90;;;;;;4955823;28;20130;-84
2023/10/10 07:39:55;;;;;;;43.35;26.55;;;15.70;99.90;;;;;;4953833;28;20035;-84
2023/10/10 07:42:29;;;;;;;44.70;27.90;;;15.80;99.90;;;;;;4948796;28;20438;-84
2023/10/10 07:44:58;;;;;;;42.55;26.52;;;15.80;99.90;;;;;;4974690;28;20090;-84
2023/10/10 07:47:26;;;;;;;47.20;29.45;;;15.90;99.90;;;;;;4958685;28;20597;-84
2023/10/10 07:49:59;;;;;;;47.25;28.38;;;15.90;99.90;;;;;;4974562;28;20049;-84
2023/10/10 07:52:25;;;;;;;43.00;28.58;;;16.00;99.90;;;;;;4962980;28;20114;-84
2023/10/10 07:54:52;;;;;;;40.97;27.30;;;16.00;99.90;;;;;;4947655;28;20066;-84
2023/10/10 07:57:22;;;;;;;49.50;30.08;;;16.00;99.90;;;;;;4948777;29;20495;-85
2023/10/10 07:59:58;;;;;;;53.55;32.22;;;16.10;99.90;;;;;;4972852;28;20047;-84
2023/10/10 08:02:31;;;;;;;51.88;33.13;;;16.10;99.90;;;;;;4958573;28;20414;-84
2023/10/10 08:05:01;;;;;;;56.17;34.05;;;16.10;99.90;;;;;;4958611;28;20387;-84
2023/10/10 08:07:28;;;;;;;57.30;34.03;;;16.20;99.90;;;;;;4974679;28;20132;-84
2023/10/10 08:10:29;;;;;;;64.68;35.65;;;16.20;99.90;;;;;;4958713;28;20178;-84
2023/10/10 08:12:41;;;;;;;58.22;35.90;;;16.30;99.90;;;;;;4960125;28;20499;-84
2023/10/10 08:15:19;;;;;;;71.18;38.20;;;16.30;99.90;;;;;;4955267;29;20039;-84
2023/10/10 08:17:55;;;;;;;70.72;40.72;;;16.30;99.90;;;;;;4963143;28;20077;-84
2023/10/10 08:20:37;;;;;;;69.55;40.95;;;16.30;99.90;;;;;;4957865;28;20066;-84
2023/10/10 08:23:05;;;;;;;71.18;42.72;;;16.30;99.90;;;;;;4943102;28;20042;-85
2023/10/10 08:25:32;;;;;;;72.22;40.78;;;16.40;99.90;;;;;;4957398;28;20066;-84
2023/10/10 08:27:59;;;;;;;69.93;41.92;;;16.40;99.90;;;;;;4948936;29;20051;-84
2023/10/10 08:30:28;;;;;;;69.22;41.80;;;16.40;99.90;;;;;;4964910;28;20042;-84
2023/10/10 08:32:59;;;;;;;68.70;39.95;;;16.50;99.90;;;;;;4972889;28;20539;-83
2023/10/10 08:35:29;;;;;;;69.15;41.22;;;16.50;99.90;;;;;;4970230;28;20147;-84
2023/10/10 08:37:58;;;;;;;63.92;38.88;;;16.50;99.90;;;;;;4971279;28;20043;-82
2023/10/10 08:40:33;;;;;;;61.55;39.50;;;16.60;99.90;;;;;;4952895;28;20053;-83
2023/10/10 08:43:02;;;;;;;61.90;39.58;;;16.60;99.90;;;;;;4982089;28;20061;-83
2023/10/10 08:45:39;;;;;;;62.50;38.17;;;16.60;99.90;;;;;;4971611;28;20089;-83
2023/10/10 08:48:12;;;;;;;62.55;38.00;;;16.70;99.90;;;;;;4972604;28;20057;-84
2023/10/10 08:50:40;;;;;;;64.30;38.40;;;16.70;99.90;;;;;;4983860;28;20043;-83
2023/10/10 08:53:10;;;;;;;63.85;37.75;;;16.70;99.90;;;;;;4955062;28;20084;-84
2023/10/10 08:55:38;;;;;;;60.88;36.58;;;16.70;99.90;;;;;;4966959;28;20047;-84
2023/10/10 08:58:09;;;;;;;62.40;37.45;;;16.70;99.90;;;;;;4970983;28;20035;-85
2023/10/10 09:00:35;;;;;;;61.35;38.72;;;16.80;99.90;;;;;;4955047;28;20070;-83
2023/10/10 09:03:01;;;;;;;57.15;36.70;;;16.80;99.90;;;;;;4956276;28;20068;-83
2023/10/10 09:05:28;;;;;;;64.28;37.60;;;16.90;99.90;;;;;;4958792;28;20039;-83
2023/10/10 09:07:55;;;;;;;61.10;39.00;;;17.00;99.90;;;;;;4972647;28;20518;-84
2023/10/10 09:10:28;;;;;;;64.85;39.50;;;17.00;99.90;;;;;;4972769;28;20038;-85
2023/10/10 09:12:58;;;;;;;64.43;39.78;;;17.10;99.90;;;;;;4972565;28;20038;-84
2023/10/10 09:15:30;;;;;;;68.25;38.63;;;17.10;99.90;;;;;;4973115;28;20541;-83
2023/10/10 09:18:12;;;;;;;;;;;17.20;99.90;;;;;;4956929;28;20115;-83
2023/10/10 09:20:38;;;;;;;70.80;41.30;;;17.20;99.90;;;;;;4971260;28;19918;-83
2023/10/10 09:23:21;;;;;;;65.25;41.33;;;17.30;99.90;;;;;;4972842;28;20042;-84
2023/10/10 09:26:08;;;;;;;70.05;42.17;;;17.30;99.90;;;;;;4956649;28;20146;-83
2023/10/10 09:28:55;;;;;;;68.53;42.80;;;17.30;99.90;;;;;;4957284;28;20057;-83
2023/10/10 09:31:31;;;;;;;69.93;40.95;;;17.40;99.90;;;;;;4972598;28;20042;-83
2023/10/10 09:34:02;;;;;;;72.07;44.17;;;17.40;99.90;;;;;;4971340;28;20490;-83
2023/10/10 09:36:28;;;;;;;72.13;42.97;;;17.50;99.90;;;;;;4971477;28;20039;-83
2023/10/10 09:39:08;;;;;;;67.05;41.95;;;17.60;99.90;;;;;;4968717;28;20344;-84
2023/10/10 09:49:45;;;;;;;64.70;41.67;;;17.70;99.90;;;;;;4962300;28;20054;-83
2023/10/10 10:09:08;;;;;;;66.22;40.42;;;18.10;99.90;;;;;;4970788;28;20051;-83
2023/10/10 10:11:56;;;;;;;66.40;40.17;;;18.20;99.90;;;;;;4969292;28;20707;-84
2023/10/10 10:14:47;;;;;;;63.80;39.67;;;18.20;99.90;;;;;;4954430;28;20037;-84
2023/10/10 10:17:53;;;;;;;66.20;42.08;;;18.30;99.90;;;;;;4956189;28;20133;-84
2023/10/10 10:21:04;;;;;;;62.42;38.17;;;18.40;99.90;;;;;;4963576;28;20042;-84
2023/10/10 10:23:33;;;;;;;62.38;38.60;;;18.40;99.90;;;;;;4967248;28;20042;-84
2023/10/10 10:26:11;;;;;;;54.78;36.30;;;18.40;99.90;;;;;;4955929;28;20057;-83
2023/10/10 10:28:43;;;;;;;55.95;36.53;;;18.50;99.90;;;;;;4971936;28;20411;-85
2023/10/10 10:31:27;;;;;;;58.45;38.30;;;18.50;99.90;;;;;;4971900;28;20169;-85
2023/10/10 10:34:31;;;;;;;54.08;36.70;;;18.60;99.90;;;;;;4955575;28;20146;-84
2023/10/10 10:37:12;;;;;;;58.67;36.95;;;18.70;99.90;;;;;;4957902;28;20130;-83
2023/10/10 10:39:46;;;;;;;57.30;38.72;;;18.80;99.90;;;;;;4952235;28;20122;-83
2023/10/10 10:42:12;;;;;;;58.45;37.88;;;18.90;99.90;;;;;;4953171;28;20047;-84
2023/10/10 10:44:54;;;;;;;55.83;37.45;;;19.00;99.90;;;;;;4949896;28;20105;-84
2023/10/10 10:47:37;;;;;;;54.10;36.75;;;19.10;99.90;;;;;;4958246;28;20431;-83
2023/10/10 10:50:17;;;;;;;51.13;35.22;;;19.20;99.90;;;;;;4953313;28;20078;-84
2023/10/10 10:52:55;;;;;;;50.28;33.67;;;19.30;99.90;;;;;;4955883;28;20074;-84
2023/10/10 10:55:27;;;;;;;49.90;33.15;;;19.40;99.90;;;;;;4955990;28;20070;-84
2023/10/10 10:58:08;;;;;;;48.05;32.40;;;19.50;99.90;;;;;;4971705;28;20035;-84
2023/10/10 11:01:16;;;;;;;50.22;32.17;;;19.50;99.90;;;;;;4955466;28;20058;-83
2023/10/10 11:03:37;;;;;;;46.47;31.35;;;19.50;99.90;;;;;;4966586;28;20157;-83
2023/10/10 11:06:07;;;;;;;45.00;30.43;;;19.50;99.90;;;;;;4968583;28;20073;-84
2023/10/10 11:14:09;;;;;;;42.58;29.60;;;19.70;99.90;;;;;;4971580;28;20469;-85
2023/10/10 11:16:38;;;;;;;41.67;28.48;;;19.80;99.90;;;;;;4970484;28;20043;-84
2023/10/10 11:19:19;;;;;;;44.08;29.15;;;19.70;99.90;;;;;;4958703;28;20051;-84
2023/10/10 11:21:53;;;;;;;35.78;26.50;;;19.70;99.90;;;;;;4991411;28;20054;-83
2023/10/10 11:24:24;;;;;;;39.38;27.35;;;19.60;99.90;;;;;;4943731;28;20047;-84
2023/10/10 11:29:45;;;;;;;44.17;29.05;;;19.50;99.90;;;;;;4966706;28;20555;-85
2023/10/10 11:32:36;;;;;;;44.03;27.23;;;19.50;99.90;;;;;;4975108;28;20042;-84
2023/10/10 11:35:36;;;;;;;42.65;26.50;;;19.60;99.90;;;;;;4975096;28;20038;-83
2023/10/10 11:38:15;;;;;;;36.10;24.40;;;19.70;99.90;;;;;;4971319;28;20142;-85
2023/10/10 11:40:43;;;;;;;37.17;24.88;;;19.90;99.90;;;;;;4965131;28;20222;-85
2023/10/10 11:43:11;;;;;;;33.88;23.17;;;20.00;99.90;;;;;;4973122;28;20058;-83
2023/10/10 11:45:49;;;;;;;38.65;23.33;;;20.10;99.90;;;;;;4958830;28;20054;-84
2023/10/10 11:48:15;;;;;;;36.33;23.60;;;20.20;99.90;;;;;;4963490;28;20095;-84
2023/10/10 11:50:47;;;;;;;35.90;24.05;;;20.30;99.90;;;;;;4969690;28;20450;-84
2023/10/10 11:53:27;;;;;;;35.47;23.05;;;20.40;99.90;;;;;;4970843;28;20038;-84
2023/10/10 11:55:55;;;;;;;31.77;22.00;;;20.40;99.90;;;;;;4974578;28;20065;-83
2023/10/10 11:58:23;;;;;;;35.33;23.27;;;20.60;99.90;;;;;;4973943;28;20514;-85
2023/10/10 12:01:05;;;;;;;33.05;22.85;;;20.60;99.90;;;;;;4972510;28;20054;-85
2023/10/10 12:03:41;;;;;;;33.13;22.67;;;20.60;99.90;;;;;;4965555;28;20042;-84
2023/10/10 12:06:14;;;;;;;33.50;22.27;;;20.60;99.90;;;;;;4974696;28;20047;-85
2023/10/10 12:08:50;;;;;;;33.08;22.17;;;20.50;99.90;;;;;;4958069;28;20070;-85
2023/10/10 12:11:22;;;;;;;34.42;22.02;;;20.50;99.90;;;;;;4955437;29;20105;-86
2023/10/10 12:13:59;;;;;;;29.15;21.05;;;20.40;99.90;;;;;;4964452;28;20054;-84
2023/10/10 12:16:25;;;;;;;30.55;21.40;;;20.40;99.90;;;;;;4974441;28;20093;-85
2023/10/10 12:18:52;;;;;;;31.65;21.70;;;20.50;99.90;;;;;;4942585;28;20039;-84
2023/10/10 12:21:21;;;;;;;29.48;20.48;;;20.50;99.90;;;;;;4946062;28;20047;-85
2023/10/10 12:23:57;;;;;;;30.95;20.45;;;20.60;99.90;;;;;;4958995;28;20050;-85
2023/10/10 12:26:38;;;;;;;33.35;20.45;;;20.70;99.90;;;;;;4963030;28;20105;-85
2023/10/10 12:29:04;;;;;;;;;;;20.80;99.90;;;;;;4959083;28;20055;-85
2023/10/10 12:31:33;;;;;;;31.45;20.75;;;20.90;99.90;;;;;;4958098;28;19945;-85
2023/10/10 12:34:00;;;;;;;32.65;22.67;;;21.10;99.90;;;;;;4973739;28;20051;-84
2023/10/10 12:36:29;;;;;;;33.30;22.42;;;21.20;99.90;;;;;;4961099;28;20044;-85
2023/10/10 12:38:55;;;;;;;30.75;22.02;;;21.30;99.90;;;;;;4957349;28;20154;-85
2023/10/10 12:41:21;;;;;;;29.17;19.48;;;21.30;99.90;;;;;;4974031;28;20074;-85
2023/10/10 12:43:48;;;;;;;31.67;20.40;;;21.30;99.90;;;;;;4941526;28;20522;-84
2023/10/10 12:46:17;;;;;;;35.40;21.85;;;21.30;99.90;;;;;;4973600;28;20051;-85
2023/10/10 12:48:46;;;;;;;32.05;21.77;;;21.30;99.90;;;;;;4957542;28;20043;-84
2023/10/10 12:51:13;;;;;;;30.15;22.27;;;21.30;99.90;;;;;;4957702;28;20062;-85
2023/10/10 12:53:39;;;;;;;30.92;22.23;;;21.20;99.90;;;;;;4968668;28;20081;-85
2023/10/10 12:56:15;;;;;;;34.17;23.35;;;21.10;99.90;;;;;;4972527;28;20057;-86
2023/10/10 12:58:43;;;;;;;32.70;23.05;;;21.00;99.90;;;;;;4975037;28;20065;-85
2023/10/10 13:01:22;;;;;;;27.10;19.25;;;20.90;99.90;;;;;;4954296;28;20117;-85
2023/10/10 13:03:48;;;;;;;23.77;17.23;;;20.70;99.90;;;;;;4968293;28;20430;-86
2023/10/10 13:06:15;;;;;;;24.15;16.13;;;20.60;99.90;;;;;;4971675;28;20046;-86
2023/10/10 13:11:20;;;;;;;22.15;15.68;;;20.50;99.90;;;;;;4973375;28;20082;-86
2023/10/10 13:13:52;;;;;;;21.92;15.43;;;20.50;99.90;;;;;;4956398;28;20047;-86
2023/10/10 13:19:06;;;;;;;23.60;14.32;;;20.50;99.90;;;;;;4966316;28;20046;-85
2023/10/10 13:21:38;;;;;;;23.80;15.68;;;20.40;99.90;;;;;;4957337;28;20042;-85
2023/10/10 13:24:11;;;;;;;23.60;14.13;;;20.40;99.90;;;;;;4956862;28;20039;-85
2023/10/10 13:26:38;;;;;;;21.20;14.65;;;20.40;99.90;;;;;;4956819;28;20050;-85
2023/10/10 13:29:05;;;;;;;21.67;15.65;;;20.40;99.90;;;;;;4956602;28;20057;-86
2023/10/10 13:31:31;;;;;;;22.33;15.55;;;20.40;99.90;;;;;;4971890;28;20105;-86
2023/10/10 13:33:57;;;;;;;21.42;14.77;;;20.30;99.90;;;;;;4953549;28;20046;-86
2023/10/10 13:36:27;;;;;;;19.98;14.70;;;20.30;99.90;;;;;;4956864;28;20050;-86
2023/10/10 13:38:57;;;;;;;24.42;16.13;;;20.30;99.90;;;;;;4972909;28;20038;-83
2023/10/10 13:41:31;;;;;;;28.35;16.95;;;20.30;99.90;;;;;;4955588;28;20768;-85
2023/10/10 13:44:02;;;;;;;23.40;17.13;;;20.30;99.90;;;;;;4972960;28;20050;-85
2023/10/10 13:46:32;;;;;;;23.42;17.75;;;20.20;99.90;;;;;;4971530;28;20047;-85
2023/10/10 13:48:59;;;;;;;26.20;17.77;;;20.20;99.90;;;;;;4971996;28;20073;-85
2023/10/10 13:51:27;;;;;;;26.10;18.13;;;20.20;99.90;;;;;;4955215;28;20034;-83
2023/10/10 13:53:55;;;;;;;24.88;18.65;;;20.20;99.90;;;;;;4931505;28;20506;-84
2023/10/10 13:56:22;;;;;;;27.38;20.40;;;20.10;99.90;;;;;;4971446;28;20487;-84
2023/10/10 13:58:48;;;;;;;34.22;22.58;;;20.10;99.90;;;;;;4955628;28;20069;-85
2023/10/10 14:01:18;;;;;;;32.83;22.13;;;20.10;99.90;;;;;;4956398;28;20038;-84
2023/10/10 14:03:46;;;;;;;31.27;22.58;;;20.10;99.90;;;;;;4955273;28;20047;-85
2023/10/10 14:06:26;;;;;;;30.08;21.67;;;20.10;99.90;;;;;;4970161;28;20653;-85
2023/10/10 14:08:53;;;;;;;27.98;21.20;;;20.10;99.90;;;;;;4968743;28;20050;-85
2023/10/10 14:11:22;;;;;;;33.10;22.00;;;20.10;99.90;;;;;;4952645;29;20055;-85
2023/10/10 14:13:49;;;;;;;28.95;21.48;;;20.10;99.90;;;;;;4970407;28;20043;-86
2023/10/10 14:16:15;;;;;;;30.48;21.58;;;20.10;99.90;;;;;;4950171;28;20085;-85
2023/10/10 14:18:47;;;;;;;28.05;20.25;;;20.10;99.90;;;;;;4963659;28;20086;-84
2023/10/10 14:21:16;;;;;;;29.75;20.63;;;20.20;99.90;;;;;;4971363;28;20034;-84
2023/10/10 14:23:42;;;;;;;30.75;20.17;;;20.20;99.90;;;;;;4971506;28;20038;-85
2023/10/10 14:26:17;;;;;;;31.13;20.48;;;20.20;99.90;;;;;;4971460;28;20038;-84
2023/10/10 14:28:50;;;;;;;32.58;22.17;;;20.10;99.90;;;;;;4972040;28;20082;-84
2023/10/10 14:31:23;;;;;;;28.55;20.52;;;20.20;99.90;;;;;;4940653;28;20047;-85
2023/10/10 14:33:50;;;;;;;31.00;20.45;;;20.20;99.90;;;;;;4971906;28;20671;-85
2023/10/10 14:36:17;;;;;;;27.35;20.20;;;20.20;99.90;;;;;;4940387;28;20053;-85
2023/10/10 14:38:48;;;;;;;29.73;20.52;;;20.10;99.90;;;;;;4939874;28;20122;-86
2023/10/10 14:41:29;;;;;;;27.80;19.63;;;20.10;99.90;;;;;;4956259;28;20193;-85
2023/10/10 14:43:59;;;;;;;;;;;20.10;99.90;;;;;;4962917;28;20078;-85
2023/10/10 14:46:31;;;;;;;29.75;20.85;;;20.00;99.90;;;;;;4954675;28;20445;-85
2023/10/10 14:49:06;;;;;;;27.75;20.05;;;20.00;99.90;;;;;;4961324;28;20181;-85
2023/10/10 14:51:36;;;;;;;28.98;19.60;;;20.00;99.90;;;;;;4968580;28;20043;-85
2023/10/10 14:54:08;;;;;;;30.17;20.67;;;20.00;99.90;;;;;;4992192;28;20129;-84
2023/10/10 14:56:36;;;;;;;30.45;20.45;;;19.90;99.90;;;;;;4944616;28;20057;-85
2023/10/10 14:59:04;;;;;;;30.02;20.45;;;19.90;99.90;;;;;;4976120;28;20070;-85
2023/10/10 15:01:34;;;;;;;28.73;20.08;;;19.90;99.90;;;;;;4959860;28;20472;-86
2023/10/10 15:04:04;;;;;;;31.48;21.80;;;19.90;99.90;;;;;;4976099;28;20050;-85
2023/10/10 15:06:31;;;;;;;31.38;21.70;;;19.80;99.90;;;;;;4942682;28;20070;-86
2023/10/10 15:08:58;;;;;;;28.45;21.15;;;19.90;99.90;;;;;;4956540;29;20043;-86
2023/10/10 15:11:29;;;;;;;23.23;19.52;;;19.80;99.90;;;;;;4944368;28;20078;-85
2023/10/10 15:13:58;;;;;;;26.65;18.77;;;19.80;99.90;;;;;;4959330;28;20046;-85
2023/10/10 15:16:27;;;;;;;27.25;18.73;;;19.80;99.90;;;;;;4959199;28;20042;-85
2023/10/10 15:18:53;;;;;;;23.08;17.08;;;19.80;99.90;;;;;;4975576;28;20066;-85
2023/10/10 15:21:32;;;;;;;24.85;17.85;;;19.80;99.90;;;;;;4959212;28;20043;-86
2023/10/10 15:23:58;;;;;;;22.00;16.45;;;19.80;99.90;;;;;;4959147;28;20081;-85
2023/10/10 15:26:24;;;;;;;22.83;18.05;;;19.70;99.90;;;;;;4959018;28;20479;-85
2023/10/10 15:28:52;;;;;;;23.55;17.88;;;19.70;99.90;;;;;;4971891;28;20070;-85
2023/10/10 15:31:24;;;;;;;25.75;16.90;;;19.60;99.90;;;;;;4937624;29;20087;-86
2023/10/10 15:33:51;;;;;;;23.30;17.65;;;19.60;99.90;;;;;;4960755;28;20039;-88
2023/10/10 15:36:18;;;;;;;23.40;18.05;;;19.50;99.90;;;;;;4942912;28;20046;-85
2023/10/10 15:38:44;;;;;;;24.77;17.83;;;19.50;99.90;;;;;;4957822;28;20042;-85
2023/10/10 15:41:19;;;;;;;20.88;17.45;;;19.40;99.90;;;;;;4955754;28;20039;-84
2023/10/10 15:43:48;;;;;;;22.35;16.90;;;19.40;99.90;;;;;;4966946;28;20055;-85
2023/10/10 15:46:19;;;;;;;21.00;16.38;;;19.40;99.90;;;;;;4958070;28;20043;-85
2023/10/10 15:48:49;;;;;;;24.85;16.98;;;19.30;99.90;;;;;;4940805;28;20078;-85
2023/10/10 15:51:21;;;;;;;21.52;17.42;;;19.30;99.90;;;;;;4949032;28;20053;-84
2023/10/10 15:53:48;;;;;;;25.65;17.90;;;19.30;99.90;;;;;;4948965;28;20506;-85
2023/10/10 15:56:16;;;;;;;20.50;15.70;;;19.20;99.90;;;;;;4961793;28;20124;-86